createdAt,value
2019-05-29T00:01:38.333Z,10.87
2019-05-29T00:04:10.165Z,10.60
2019-05-29T00:06:40.987Z,5.20
2019-05-29T00:09:12.198Z,14.67
2019-05-29T00:11:43.042Z,8.33
2019-05-29T00:14:23.705Z,11.73
2019-05-29T00:16:46.044Z,8.93
2019-05-29T00:19:16.669Z,9.63
2019-05-29T00:21:47.373Z,7.57
2019-05-29T00:24:17.960Z,4.00
2019-05-29T00:26:48.530Z,7.57
2019-05-29T00:29:19.177Z,6.10
2019-05-29T00:31:50.890Z,38.27
2019-05-29T00:34:22.409Z,6.67
2019-05-29T00:36:54.271Z,17.17
2019-05-29T00:39:24.851Z,12.93
2019-05-29T00:41:55.472Z,9.70
2019-05-29T00:44:34.234Z,14.33
2019-05-29T00:46:58.365Z,5.67
2019-05-29T00:49:29.031Z,26.90
2019-05-29T00:51:59.781Z,4.40
2019-05-29T00:54:30.545Z,9.57
2019-05-29T00:57:01.135Z,6.47
2019-05-29T00:59:31.694Z,4.80
2019-05-29T01:02:02.308Z,31.60
2019-05-29T01:04:32.989Z,15.43
2019-05-29T01:07:03.596Z,7.27
2019-05-29T01:09:34.152Z,8.30
2019-05-29T01:12:04.850Z,18.33
2019-05-29T01:14:49.300Z,4.57
2019-05-29T01:17:07.810Z,5.60
2019-05-29T01:19:39.052Z,6.13
2019-05-29T01:22:09.735Z,5.17
2019-05-29T01:24:40.304Z,7.17
2019-05-29T01:27:11.181Z,4.53
2019-05-29T01:29:41.747Z,7.80
2019-05-29T01:32:13.455Z,6.60
2019-05-29T01:34:45.533Z,4.63
2019-05-29T01:37:16.194Z,6.47
2019-05-29T01:39:47.594Z,9.00
2019-05-29T01:42:19.409Z,6.07
2019-05-29T01:45:03.867Z,12.07
2019-05-29T01:47:23.638Z,4.77
2019-05-29T01:49:54.599Z,5.47
2019-05-29T01:52:25.689Z,7.80
2019-05-29T01:54:57.326Z,3.93
2019-05-29T01:57:28.070Z,5.70
2019-05-29T02:00:00.857Z,3.10
2019-05-29T02:02:31.535Z,5.80
2019-05-29T02:05:02.134Z,14.40
2019-05-29T02:07:32.696Z,9.77
2019-05-29T02:10:05.078Z,24.17
2019-05-29T02:12:35.743Z,39.37
2019-05-29T02:15:23.084Z,8.13
2019-05-29T02:17:40.960Z,7.73
2019-05-29T02:20:12.276Z,6.27
2019-05-29T02:22:43.341Z,8.77
2019-05-29T02:25:17.290Z,5.50
2019-05-29T02:27:46.439Z,4.27
2019-05-29T02:30:18.769Z,5.37
2019-05-29T02:32:50.037Z,11.63
2019-05-29T02:35:22.383Z,6.47
2019-05-29T02:37:53.208Z,6.33
2019-05-29T02:40:25.917Z,5.27
2019-05-29T02:42:57.693Z,9.87
2019-05-29T02:45:52.141Z,5.70
2019-05-29T02:48:00.623Z,3.97
2019-05-29T02:50:31.391Z,6.47
2019-05-29T02:53:03.054Z,5.93
2019-05-29T02:55:33.633Z,3.73
2019-05-29T02:58:04.217Z,8.17
2019-05-29T03:00:47.082Z,5.30
2019-05-29T03:03:17.796Z,4.40
2019-05-29T03:05:48.898Z,5.13
2019-05-29T03:08:19.644Z,6.43
2019-05-29T03:10:50.637Z,7.10
2019-05-29T03:13:22.960Z,4.53
2019-05-29T03:16:09.961Z,2.33
2019-05-29T03:18:25.967Z,8.50
2019-05-29T03:20:57.059Z,6.83
2019-05-29T03:23:28.962Z,15.80
2019-05-29T03:26:00.323Z,12.37
2019-05-29T03:28:32.296Z,12.83
2019-05-29T03:31:03.403Z,12.60
2019-05-29T03:33:43.786Z,15.27
2019-05-29T03:36:06.289Z,11.67
2019-05-29T03:38:38.488Z,7.20
2019-05-29T03:41:09.213Z,10.23
2019-05-29T03:43:40.916Z,7.77
2019-05-29T03:46:29.028Z,3.97
2019-05-29T03:48:44.761Z,9.33
2019-05-29T03:51:15.344Z,5.87
2019-05-29T03:53:46.542Z,5.30
2019-05-29T03:56:17.165Z,15.67
2019-05-29T03:58:48.026Z,5.33
2019-05-29T04:01:18.701Z,6.83
2019-05-29T04:03:50.405Z,13.37
2019-05-29T04:06:21.025Z,43.13
2019-05-29T04:08:51.844Z,13.67
2019-05-29T04:11:22.507Z,10.40
2019-05-29T04:13:53.280Z,7.10
2019-05-29T04:16:24.670Z,5.47
2019-05-29T04:18:56.894Z,5.13
2019-05-29T04:21:29.546Z,9.67
2019-05-29T04:24:03.871Z,9.63
2019-05-29T04:26:40.532Z,5.80
2019-05-29T04:29:11.258Z,8.10
2019-05-29T04:31:41.851Z,36.03
2019-05-29T04:34:12.445Z,6.97
2019-05-29T04:36:43.131Z,13.63
2019-05-29T04:39:13.807Z,3.90
2019-05-29T04:41:44.481Z,11.53
2019-05-29T04:44:15.165Z,6.30
2019-05-29T04:46:45.730Z,3.17
2019-05-29T04:49:20.124Z,4.33
2019-05-29T04:51:51.334Z,5.90
2019-05-29T04:54:22.033Z,6.00
2019-05-29T04:56:52.590Z,3.67
2019-05-29T04:59:23.203Z,7.77
2019-05-29T05:01:53.850Z,5.67
2019-05-29T05:04:24.437Z,7.07
2019-05-29T05:06:55.150Z,2.90
2019-05-29T05:09:25.787Z,9.10
2019-05-29T05:11:57.076Z,11.73
2019-05-29T05:14:27.735Z,10.50
2019-05-29T05:16:58.318Z,7.83
2019-05-29T05:19:29.732Z,5.83
2019-05-29T05:22:00.447Z,4.67
2019-05-29T05:24:32.147Z,7.30
2019-05-29T05:27:02.757Z,5.13
2019-05-29T05:29:34.160Z,11.03
2019-05-29T05:32:05.040Z,13.70
2019-05-29T05:34:36.866Z,6.17
2019-05-29T05:37:07.556Z,9.20
2019-05-29T05:39:39.041Z,7.10
2019-05-29T05:42:09.761Z,8.13
2019-05-29T05:44:41.643Z,5.70
2019-05-29T05:47:13.337Z,9.63
2019-05-29T05:49:44.461Z,6.83
2019-05-29T05:52:15.129Z,6.07
2019-05-29T05:54:45.705Z,5.53
2019-05-29T05:57:16.370Z,6.90
2019-05-29T05:59:47.232Z,10.00
2019-05-29T06:02:17.910Z,5.67
2019-05-29T06:04:48.486Z,5.77
2019-05-29T06:07:19.263Z,5.73
2019-05-29T06:09:49.952Z,7.80
2019-05-29T06:12:20.839Z,4.70
2019-05-29T06:14:51.514Z,3.33
2019-05-29T06:17:22.146Z,6.77
2019-05-29T06:19:53.737Z,4.13
2019-05-29T06:22:24.331Z,6.17
2019-05-29T06:24:55.030Z,4.73
2019-05-29T06:27:26.992Z,5.23
2019-05-29T06:29:57.478Z,6.60
2019-05-29T06:32:28.050Z,5.50
2019-05-29T06:34:58.775Z,2.97
2019-05-29T06:37:29.365Z,15.17
2019-05-29T06:39:59.958Z,6.42
2019-05-29T06:42:30.677Z,5.33
2019-05-29T06:45:01.867Z,4.30
2019-05-29T06:47:34.193Z,5.40
2019-05-29T06:50:05.754Z,3.75
2019-05-29T06:52:37.482Z,5.72
2019-05-29T06:55:08.033Z,4.20
2019-05-29T06:57:40.111Z,5.65
2019-05-29T07:00:11.098Z,7.15
2019-05-29T07:02:42.618Z,8.78
2019-05-29T07:05:13.414Z,6.70
2019-05-29T07:07:44.512Z,3.37
2019-05-29T07:10:15.500Z,6.83
2019-05-29T07:12:46.699Z,8.45
2019-05-29T07:15:17.441Z,3.52
2019-05-29T07:17:48.028Z,6.28
2019-05-29T07:20:18.818Z,5.20
2019-05-29T07:22:49.901Z,4.58
2019-05-29T07:25:20.747Z,5.95
2019-05-29T07:27:51.321Z,4.92
2019-05-29T07:30:22.592Z,10.35
2019-05-29T07:32:58.572Z,4.37
2019-05-29T07:35:25.658Z,2.50
2019-05-29T07:37:56.243Z,2.98
2019-05-29T07:40:26.842Z,5.60
2019-05-29T07:42:57.437Z,7.03
2019-05-29T07:45:29.123Z,3.72
2019-05-29T07:47:59.733Z,2.98
2019-05-29T07:50:30.439Z,4.20
2019-05-29T07:53:01.356Z,5.25
2019-05-29T07:55:32.026Z,2.95
2019-05-29T07:58:02.607Z,4.95
2019-05-29T08:00:35.824Z,7.35
2019-05-29T08:03:05.592Z,8.10
2019-05-29T08:05:36.270Z,10.35
2019-05-29T08:08:07.037Z,4.20
2019-05-29T08:10:37.701Z,2.77
2019-05-29T08:13:08.284Z,2.87
2019-05-29T08:15:53.958Z,4.20
2019-05-29T08:18:11.505Z,2.57
2019-05-29T08:20:42.238Z,6.43
2019-05-29T08:23:12.926Z,7.13
2019-05-29T08:25:43.625Z,5.57
2019-05-29T08:28:14.494Z,8.73
2019-05-29T08:30:48.379Z,9.13
2019-05-29T08:33:17.400Z,4.07
2019-05-29T08:35:55.739Z,1.77
2019-05-29T08:38:20.475Z,5.43
2019-05-29T08:40:51.519Z,3.93
2019-05-29T08:43:23.369Z,6.03
2019-05-29T08:45:54.626Z,2.00
2019-05-29T08:48:25.326Z,3.40
2019-05-29T08:50:56.004Z,3.70
2019-05-29T08:53:26.727Z,4.40
2019-05-29T08:55:57.418Z,17.03
2019-05-29T08:58:27.993Z,6.03
2019-05-29T09:00:58.564Z,8.77
2019-05-29T09:03:29.150Z,5.77
2019-05-29T09:06:08.509Z,3.97
2019-05-29T09:08:32.617Z,5.90
2019-05-29T09:11:03.684Z,2.50
2019-05-29T09:13:34.653Z,4.97
2019-05-29T09:16:05.376Z,3.43
2019-05-29T09:18:36.142Z,4.47
2019-05-29T09:21:08.213Z,3.73
2019-05-29T09:23:38.803Z,2.83
2019-05-29T09:26:15.899Z,5.50
2019-05-29T09:28:41.787Z,8.73
2019-05-29T09:31:14.987Z,3.07
2019-05-29T09:33:45.060Z,2.57
2019-05-29T09:36:17.031Z,5.47
2019-05-29T09:38:48.459Z,4.67
2019-05-29T09:41:19.123Z,2.73
2019-05-29T09:43:59.261Z,3.83
2019-05-29T09:46:21.955Z,4.97
2019-05-29T09:48:52.656Z,3.33
2019-05-29T09:51:23.345Z,4.97
2019-05-29T09:53:55.733Z,2.27
2019-05-29T09:56:26.528Z,7.07
2019-05-29T09:58:58.348Z,7.47
2019-05-29T10:01:29.550Z,2.83
2019-05-29T10:04:03.447Z,3.57
2019-05-29T10:06:32.817Z,6.07
2019-05-29T10:09:05.117Z,2.27
2019-05-29T10:11:35.678Z,3.23
2019-05-29T10:14:06.458Z,2.30
2019-05-29T10:16:37.342Z,4.50
2019-05-29T10:19:07.993Z,4.50
2019-05-29T10:21:41.032Z,2.70
2019-05-29T10:24:10.857Z,3.27
2019-05-29T10:26:41.431Z,1.50
2019-05-29T10:29:12.049Z,2.10
2019-05-29T10:31:45.153Z,2.87
2019-05-29T10:34:14.967Z,4.67
2019-05-29T10:36:49.492Z,2.87
2019-05-29T10:39:17.951Z,2.67
2019-05-29T10:41:48.896Z,6.70
2019-05-29T10:44:19.486Z,5.40
2019-05-29T10:46:52.047Z,2.80
2019-05-29T10:49:22.362Z,2.20
2019-05-29T10:52:09.355Z,4.40
2019-05-29T10:54:25.227Z,6.67
2019-05-29T10:56:55.895Z,3.80
2019-05-29T10:59:26.468Z,12.90
2019-05-29T11:01:57.242Z,9.63
2019-05-29T11:04:28.030Z,7.33
2019-05-29T11:06:58.708Z,8.57
2019-05-29T11:09:43.387Z,4.50
2019-05-29T11:12:01.661Z,3.57
2019-05-29T11:14:32.371Z,5.10
2019-05-29T11:17:02.947Z,11.00
2019-05-29T11:19:33.628Z,2.30
2019-05-29T11:22:24.764Z,5.57
2019-05-29T11:24:36.605Z,3.93
2019-05-29T11:27:07.259Z,4.17
2019-05-29T11:29:38.079Z,4.80
2019-05-29T11:32:08.666Z,4.60
2019-05-29T11:34:39.743Z,4.00
2019-05-29T11:37:10.312Z,2.93
2019-05-29T11:39:41.053Z,4.00
2019-05-29T11:42:26.243Z,4.70
2019-05-29T11:44:43.989Z,2.97
2019-05-29T11:47:14.570Z,3.50
2019-05-29T11:49:45.140Z,3.27
2019-05-29T11:52:24.533Z,7.50
2019-05-29T11:54:48.116Z,4.73
2019-05-29T11:57:18.789Z,3.73
2019-05-29T11:59:49.495Z,5.00
2019-05-29T12:02:20.199Z,7.77
2019-05-29T12:04:51.189Z,4.43
2019-05-29T12:07:21.918Z,4.80
2019-05-29T12:09:53.359Z,4.50
2019-05-29T12:12:24.049Z,6.47
2019-05-29T12:15:05.556Z,3.50
2019-05-29T12:17:28.572Z,5.40
2019-05-29T12:19:59.920Z,3.90
2019-05-29T12:22:31.930Z,9.30
2019-05-29T12:25:03.139Z,6.27
2019-05-29T12:27:34.819Z,4.07
2019-05-29T12:30:12.761Z,3.77
2019-05-29T12:32:43.448Z,4.10
2019-05-29T12:35:15.318Z,8.87
2019-05-29T12:37:47.354Z,12.50
2019-05-29T12:40:25.980Z,4.33
2019-05-29T12:42:57.539Z,3.53
2019-05-29T12:45:34.725Z,6.70
2019-05-29T12:48:13.513Z,3.90
2019-05-29T12:50:39.073Z,1.00
2019-05-29T12:53:09.807Z,2.10
2019-05-29T12:55:40.722Z,1.63
2019-05-29T12:58:11.339Z,6.83
2019-05-29T13:00:42.007Z,7.20
2019-05-29T13:03:12.689Z,4.20
2019-05-29T13:05:43.385Z,3.83
2019-05-29T13:08:14.067Z,5.60
2019-05-29T13:10:54.221Z,3.70
2019-05-29T13:13:25.182Z,2.77
2019-05-29T13:15:56.683Z,2.77
2019-05-29T13:18:27.838Z,4.43
2019-05-29T13:20:58.908Z,3.87
2019-05-29T13:23:44.168Z,4.93
2019-05-29T13:26:03.588Z,4.30
2019-05-29T13:28:34.971Z,8.07
2019-05-29T13:31:06.778Z,2.13
2019-05-29T13:33:37.742Z,4.57
2019-05-29T13:36:08.569Z,2.13
2019-05-29T13:38:39.764Z,6.20
2019-05-29T13:41:10.773Z,3.40
2019-05-29T13:43:41.468Z,5.23
2019-05-29T13:46:12.161Z,6.80
2019-05-29T13:48:43.006Z,7.37
2019-05-29T13:51:14.271Z,2.87
2019-05-29T13:54:02.066Z,2.33
2019-05-29T13:56:18.655Z,2.60
2019-05-29T13:58:49.441Z,3.53
2019-05-29T14:01:20.088Z,6.97
2019-05-29T14:03:52.277Z,7.93
2019-05-29T14:06:23.350Z,2.87
2019-05-29T14:08:54.042Z,5.93
2019-05-29T14:11:25.564Z,7.40
2019-05-29T14:13:56.457Z,9.10
2019-05-29T14:16:27.365Z,9.80
2019-05-29T14:19:00.725Z,4.40
2019-05-29T14:21:32.641Z,2.47
2019-05-29T14:24:22.574Z,5.10
2019-05-29T14:26:35.651Z,7.13
2019-05-29T14:29:07.501Z,4.77
2019-05-29T14:31:38.145Z,5.07
2019-05-29T14:34:09.468Z,2.83
2019-05-29T14:36:40.367Z,2.33
2019-05-29T14:39:12.206Z,5.17
2019-05-29T14:41:42.888Z,2.97
2019-05-29T14:44:16.980Z,3.47
2019-05-29T14:46:45.943Z,6.37
2019-05-29T14:49:16.710Z,4.03
2019-05-29T14:51:47.887Z,5.17
2019-05-29T14:54:18.578Z,8.40
2019-05-29T14:56:49.450Z,7.87
2019-05-29T14:59:21.285Z,18.00
2019-05-29T15:01:52.992Z,4.23
2019-05-29T15:04:23.755Z,7.23
2019-05-29T15:06:54.709Z,4.57
2019-05-29T15:09:26.200Z,2.57
2019-05-29T15:11:58.913Z,4.67
2019-05-29T15:14:30.731Z,6.67
2019-05-29T15:17:01.823Z,12.00
2019-05-29T15:19:32.830Z,5.27
2019-05-29T15:22:05.009Z,4.57
2019-05-29T15:24:36.958Z,4.87
2019-05-29T15:27:07.927Z,3.90
2019-05-29T15:29:39.753Z,2.73
2019-05-29T15:32:12.415Z,2.53
2019-05-29T15:34:43.314Z,5.40
2019-05-29T15:37:16.984Z,2.53
2019-05-29T15:39:46.779Z,5.63
2019-05-29T15:42:17.657Z,11.10
2019-05-29T15:44:50.756Z,7.37
2019-05-29T15:47:21.764Z,20.67
2019-05-29T15:49:53.356Z,13.20
2019-05-29T15:52:25.031Z,5.30
2019-05-29T15:54:56.790Z,2.90
2019-05-29T15:57:28.135Z,4.57
2019-05-29T15:59:58.948Z,4.47
2019-05-29T16:02:29.665Z,5.10
2019-05-29T16:05:03.065Z,2.73
2019-05-29T16:07:34.009Z,6.33
2019-05-29T16:10:13.074Z,4.00
2019-05-29T16:12:43.255Z,5.43
2019-05-29T16:15:17.460Z,3.57
2019-05-29T16:17:48.882Z,2.77
2019-05-29T16:20:19.863Z,12.63
2019-05-29T16:22:50.744Z,10.23
2019-05-29T16:25:38.881Z,18.27
2019-05-29T16:27:55.241Z,6.83
2019-05-29T16:31:20.470Z,5.53
2019-05-29T16:33:51.849Z,3.97
2019-05-29T16:36:25.139Z,2.03
2019-05-29T16:38:55.906Z,4.13
2019-05-29T16:41:26.726Z,11.80
2019-05-29T16:43:57.441Z,17.43
2019-05-29T16:46:28.127Z,10.53
2019-05-29T16:48:58.736Z,8.30
2019-05-29T16:51:29.582Z,2.47
2019-05-29T16:54:00.623Z,6.77
2019-05-29T16:56:31.359Z,7.20
2019-05-29T16:59:02.114Z,7.10
2019-05-29T17:01:32.846Z,5.90
2019-05-29T17:04:03.576Z,7.53
2019-05-29T17:06:34.321Z,4.73
2019-05-29T17:09:08.364Z,5.03
2019-05-29T17:11:41.234Z,4.40
2019-05-29T17:14:11.947Z,5.13
2019-05-29T17:16:42.627Z,4.07
2019-05-29T17:19:14.468Z,4.33
2019-05-29T17:21:45.219Z,5.80
2019-05-29T17:24:16.648Z,8.70
2019-05-29T17:26:47.863Z,4.50
2019-05-29T17:29:18.908Z,3.67
2019-05-29T17:31:49.658Z,3.03
2019-05-29T17:34:21.069Z,3.43
2019-05-29T17:36:51.916Z,5.33
2019-05-29T17:39:23.099Z,2.43
2019-05-29T17:41:54.824Z,4.47
2019-05-29T17:44:25.807Z,8.53
2019-05-29T17:46:57.383Z,11.13
2019-05-29T17:49:34.675Z,8.17
2019-05-29T17:52:05.865Z,4.87
2019-05-29T17:54:36.675Z,5.30
2019-05-29T17:57:07.396Z,3.83
2019-05-29T17:59:38.093Z,4.97
2019-05-29T18:02:09.357Z,2.30
2019-05-29T18:04:39.977Z,4.37
2019-05-29T18:07:11.121Z,3.37
2019-05-29T18:09:42.062Z,1.97
2019-05-29T18:12:17.096Z,2.60
2019-05-29T18:14:48.554Z,10.40
2019-05-29T18:17:21.286Z,19.07
2019-05-29T18:19:53.525Z,4.03
2019-05-29T18:22:25.690Z,8.07
2019-05-29T18:24:58.501Z,7.33
2019-05-29T18:27:32.368Z,3.23
2019-05-29T18:30:06.587Z,3.07
2019-05-29T18:32:38.436Z,3.20
2019-05-29T18:35:10.476Z,6.27
2019-05-29T18:37:41.900Z,12.03
2019-05-29T18:40:15.373Z,7.13
2019-05-29T18:42:46.480Z,3.27
2019-05-29T18:45:20.854Z,6.30
2019-05-29T18:47:50.265Z,5.83
2019-05-29T18:50:21.845Z,9.27
2019-05-29T18:52:52.591Z,3.63
2019-05-29T18:55:23.083Z,12.73
2019-05-29T18:57:53.812Z,12.23
2019-05-29T19:00:25.360Z,15.17
2019-05-29T19:02:56.165Z,4.70
2019-05-29T19:05:27.719Z,10.30
2019-05-29T19:07:58.667Z,11.60
2019-05-29T19:10:29.805Z,20.07
2019-05-29T19:13:00.903Z,10.77
2019-05-29T19:15:32.136Z,12.67
2019-05-29T19:18:02.947Z,29.80
2019-05-29T19:20:34.761Z,35.70
2019-05-29T19:23:08.032Z,39.57
2019-05-29T19:25:38.784Z,20.00
2019-05-29T19:28:12.286Z,11.50
2019-05-29T19:30:43.169Z,13.77
2019-05-29T19:33:16.349Z,17.63
2019-05-29T19:35:47.667Z,24.20
2019-05-29T19:38:21.138Z,17.10
2019-05-29T19:40:52.578Z,19.17
2019-05-29T19:43:24.200Z,15.07
2019-05-29T19:45:55.994Z,15.83
2019-05-29T19:48:30.612Z,13.63
2019-05-29T19:51:02.369Z,12.63
2019-05-29T19:53:33.977Z,14.13
2019-05-29T19:56:06.506Z,13.67
2019-05-29T19:58:37.976Z,8.40
2019-05-29T20:01:09.131Z,11.60
2019-05-29T20:03:40.159Z,13.70
2019-05-29T20:06:12.752Z,18.40
2019-05-29T20:08:43.768Z,12.37
2019-05-29T20:11:15.048Z,14.03
2019-05-29T20:13:46.616Z,31.00
2019-05-29T20:16:18.959Z,22.37
2019-05-29T20:18:51.973Z,97.67
2019-05-29T20:21:23.001Z,100.10
2019-05-29T20:23:55.330Z,35.10
2019-05-29T20:26:26.556Z,28.43
2019-05-29T20:28:57.773Z,20.57
2019-05-29T20:31:30.582Z,60.80
2019-05-29T20:34:01.619Z,99.97
2019-05-29T20:36:34.819Z,94.17
2019-05-29T20:39:08.440Z,39.50
2019-05-29T20:41:42.089Z,28.43
2019-05-29T20:44:12.205Z,31.30
2019-05-29T20:46:43.531Z,20.80
2019-05-29T20:49:14.182Z,26.33
2019-05-29T20:51:45.001Z,22.73
2019-05-29T20:54:19.063Z,19.20
2019-05-29T20:56:49.638Z,28.20
2019-05-29T20:59:20.345Z,20.00
2019-05-29T21:01:52.072Z,18.60
2019-05-29T21:04:23.095Z,13.57
2019-05-29T21:06:53.711Z,12.83
2019-05-29T21:09:24.396Z,16.37
2019-05-29T21:11:55.091Z,17.80
2019-05-29T21:14:25.944Z,12.60
2019-05-29T21:16:56.792Z,11.60
2019-05-29T21:19:27.718Z,16.43
2019-05-29T21:21:58.523Z,10.63
2019-05-29T21:24:29.406Z,12.33
2019-05-29T21:27:00.161Z,14.43
2019-05-29T21:29:35.223Z,13.87
2019-05-29T21:32:06.133Z,16.07
2019-05-29T21:34:37.818Z,13.77
2019-05-29T21:37:08.613Z,12.50
2019-05-29T21:39:40.283Z,13.63
2019-05-29T21:42:11.155Z,8.67
2019-05-29T21:44:42.859Z,10.10
2019-05-29T21:47:13.584Z,11.53
2019-05-29T21:49:45.253Z,7.47
2019-05-29T21:52:16.007Z,9.47
2019-05-29T21:54:49.413Z,12.00
2019-05-29T21:57:19.991Z,9.90
2019-05-29T21:59:50.773Z,8.63
2019-05-29T22:02:21.335Z,3.97
2019-05-29T22:04:51.941Z,8.67
2019-05-29T22:07:22.533Z,5.67
2019-05-29T22:09:54.542Z,6.13
2019-05-29T22:12:25.241Z,7.17
2019-05-29T22:14:56.841Z,8.70
2019-05-29T22:17:27.680Z,6.97
2019-05-29T22:19:59.066Z,5.50
2019-05-29T22:22:29.748Z,4.80
2019-05-29T22:25:01.562Z,6.90
2019-05-29T22:27:32.379Z,7.67
2019-05-29T22:30:02.963Z,4.60
2019-05-29T22:32:33.736Z,6.33
2019-05-29T22:35:05.956Z,5.97
2019-05-29T22:37:36.574Z,7.17
2019-05-29T22:40:08.709Z,8.93
2019-05-29T22:42:39.283Z,7.03
2019-05-29T22:45:10.299Z,6.63
2019-05-29T22:47:40.969Z,3.93
2019-05-29T22:50:12.160Z,7.03
2019-05-29T22:52:42.972Z,5.20
2019-05-29T22:55:13.885Z,6.83
2019-05-29T22:57:46.167Z,4.97
2019-05-29T23:00:18.555Z,5.50
2019-05-29T23:02:49.357Z,5.30
2019-05-29T23:05:20.129Z,7.47
2019-05-29T23:07:51.991Z,6.37
2019-05-29T23:10:23.052Z,7.67
2019-05-29T23:12:54.494Z,7.10
2019-05-29T23:15:25.168Z,6.90
2019-05-29T23:17:56.434Z,8.60
2019-05-29T23:20:27.193Z,6.73
2019-05-29T23:22:58.616Z,7.93
2019-05-29T23:25:29.454Z,6.47
2019-05-29T23:28:01.164Z,8.10
2019-05-29T23:30:31.929Z,7.00
2019-05-29T23:33:03.405Z,6.87
2019-05-29T23:35:35.196Z,6.13
2019-05-29T23:38:05.914Z,5.63
2019-05-29T23:40:36.500Z,4.93
2019-05-29T23:43:07.077Z,9.03
2019-05-29T23:45:39.319Z,7.37
2019-05-29T23:48:10.016Z,5.70
2019-05-29T23:50:40.685Z,6.60
2019-05-29T23:53:11.239Z,5.83
2019-05-29T23:55:41.987Z,4.73
2019-05-29T23:58:12.655Z,6.87
